• Join FlightAware (Why Join?)
  • Login
  • US Flag 
01:27AM EDT


 

Airport Tracker/Info


-or-


 

Live Flight TrackerFlight Track Log ✈ N31KE ✈ 28-Jul-2014 ✈ KJGG - KCRW

Flight Track Log - Related Links

Times and Time Zones

All times are in EDT time to prevent confusion due to time zone crossing. See the N31KE flight status page for this flight to view local times or setup timezone preferences in your user account.

Time Position Orientation Groundspeed Altitude Reporting Facility
EDT Latitude Longitude Course Direction KTS MPH feet Rate Location/Type
01:08PM 37.2369 -76.7839 259° West 96 110 1,300  Level Washington Center
01:09PM 37.2325 -76.8125 259° West 72 83 1,700 240 Climbing Washington Center
01:10PM 37.2386 -76.8361 288° West 81 93 1,900 300 Climbing Washington Center
01:13PM 37.2500 -76.9000 283° West 90 104 2,700 360 Climbing Potomac TRACON
01:14PM 37.2667 -76.9167 321° Northwest 92 106 3,100 300 Climbing Potomac TRACON
01:15PM 37.2667 -76.9500 270° West 94 108 3,300 240 Climbing Potomac TRACON
01:17PM 37.2833 -77.0167 287° West 94 108 3,900 240 Climbing Potomac TRACON
01:18PM 37.3000 -77.0500 302° West 98 113 4,100  Climbing Potomac TRACON
01:19PM 37.3000 -77.0833 270° West 114 131 4,000 -60 Descending Potomac TRACON
01:20PM 37.3167 -77.1167 302° West 103 119 4,000  Level Potomac TRACON
01:21PM 37.3167 -77.1500 270° West 103 119 4,000  Level Potomac TRACON
01:22PM 37.3333 -77.1833 302° West 105 121 4,000  Level Potomac TRACON
01:23PM 37.3333 -77.2167 270° West 104 120 4,000  Level Potomac TRACON
01:24PM 37.3500 -77.2500 302° West 106 122 4,000  Level Potomac TRACON
01:25PM 37.3667 -77.2833 302° West 114 131 4,000 -60 Level Potomac TRACON
01:26PM 37.3667 -77.3167 270° West 108 124 3,900  Descending Potomac TRACON
01:27PM 37.3833 -77.3500 302° West 104 120 4,000  Climbing Potomac TRACON
01:28PM 37.3833 -77.4000 270° West 109 125 4,000  Level Potomac TRACON
01:29PM 37.4000 -77.4333 302° West 108 124 4,000  Level Potomac TRACON
01:30PM 37.4000 -77.4667 270° West 122 140 4,000  Level Potomac TRACON
01:31PM 37.4167 -77.5000 302° West 109 125 4,000  Level Potomac TRACON
01:32PM 37.4167 -77.5333 270° West 116 133 4,000  Level Potomac TRACON
01:33PM 37.4333 -77.5667 302° West 100 115 4,000  Level Potomac TRACON
01:34PM 37.4333 -77.6000 270° West 105 121 4,000 -60 Level Potomac TRACON
01:35PM 37.4500 -77.6333 302° West 105 121 3,900  Descending Potomac TRACON
01:36PM 37.4500 -77.6667 270° West 114 131 4,000  Climbing Potomac TRACON
01:37PM 37.4667 -77.7167 293° West 108 124 4,000  Level Potomac TRACON
01:38PM 37.4667 -77.7333 270° West 105 121 4,000  Level Potomac TRACON
01:39PM 37.5000 -77.7667 322° Northwest 109 125 4,000  Level Potomac TRACON
01:40PM 37.5167 -77.8000 302° West 110 127 4,000  Level Potomac TRACON
01:41PM 37.5333 -77.8167 322° Northwest 109 125 4,000  Level Potomac TRACON
01:42PM 37.5500 -77.8500 302° West 105 121 4,000  Level Potomac TRACON
01:43PM 37.5500 -77.8833 270° West 104 120 4,000 -60 Level Potomac TRACON
01:44PM 37.5667 -77.9167 302° West 105 121 3,900  Descending Potomac TRACON
01:44PM 37.5833 -77.9500 302° West 145 167 4,000  Climbing Potomac TRACON
01:45PM 37.5833 -77.9833 270° West 107 123 3,900 -60 Descending Potomac TRACON
01:46PM 37.6000 -78.0167 302° West 104 120 3,900  Level Potomac TRACON
01:47PM 37.6000 -78.0500 270° West 110 127 4,000  Climbing Potomac TRACON
01:48PM 37.6167 -78.1000 293° West 117 135 4,000 -60 Level Potomac TRACON
01:49PM 37.6167 -78.1333 270° West 112 129 3,900  Descending Potomac TRACON
01:50PM 37.6333 -78.1667 302° West 111 128 4,000  Climbing Potomac TRACON
01:51PM 37.6333 -78.2000 270° West 115 132 4,000 -60 Level Potomac TRACON
01:52PM 37.6500 -78.2500 293° West 108 124 3,900  Descending Potomac TRACON
01:53PM 37.6500 -78.2667 270° West 105 121 4,000  Climbing Potomac TRACON
01:54PM 37.6667 -78.3167 293° West 115 132 4,000  Level Potomac TRACON
01:55PM 37.6667 -78.3500 270° West 108 124 4,000 -60 Level Potomac TRACON
01:56PM 37.6833 -78.3833 302° West 105 121 3,900  Descending Potomac TRACON
01:57PM 37.6833 -78.4167 270° West 92 106 4,000 180 Climbing Potomac TRACON
01:58PM 37.6833 -78.4333 270° West 79 91 4,300 300 Climbing Potomac TRACON
01:59PM 37.7000 -78.4667 302° West 79 91 4,600 420 Climbing Potomac TRACON
02:00PM 37.7000 -78.5000 270° West 79 91 5,200 360 Climbing Potomac TRACON
02:01PM 37.7167 -78.5167 322° Northwest 78 90 5,400 240 Climbing Potomac TRACON
02:02PM 37.7167 -78.5500 270° West 80 92 5,700 300 Climbing Potomac TRACON
02:03PM 37.7167 -78.5667 270° West 72 83 6,000 120 Climbing Potomac TRACON
02:04PM 37.7333 -78.6000 302° West 91 105 6,000 -60 Level Potomac TRACON
02:05PM 37.7333 -78.6333 270° West 102 117 5,900  Descending Potomac TRACON
02:06PM 37.7500 -78.6667 302° West 100 115 6,000  Climbing Potomac TRACON
02:07PM 37.7500 -78.7000 270° West 107 123 6,000  Level Potomac TRACON
02:08PM 37.7500 -78.7333 270° West 94 108 6,000  Level Potomac TRACON
02:09PM 37.7647 -78.7494 319° Northwest 97 112 6,000  Level Washington Center
02:10PM 37.7722 -78.7811 287° West 102 117 6,000  Level Washington Center
02:11PM 37.7817 -78.8183 288° West 110 127 6,000  Level Washington Center
02:12PM 37.7889 -78.8528 285° West 105 121 6,100  Climbing Washington Center
02:13PM 37.7964 -78.8872 285° West 105 121 6,000 -60 Descending Washington Center
02:14PM 37.8039 -78.9219 285° West 105 121 6,000  Level Washington Center
02:15PM 37.8133 -78.9564 289° West 111 128 6,000  Level Washington Center
02:16PM 37.8208 -78.9883 287° West 111 128 6,000  Level Washington Center
02:17PM 37.8258 -79.0253 280° West 111 128 6,000  Level Washington Center
02:18PM 37.8333 -79.0600 285° West 105 121 6,000  Level Washington Center
02:19PM 37.8408 -79.0892 288° West 105 121 6,000 -60 Level Washington Center
02:20PM 37.8481 -79.1211 286° West 105 121 5,900 -60 Descending Washington Center
02:21PM 37.8575 -79.1531 291° West 105 121 5,900  Level Washington Center
02:22PM 37.8631 -79.1822 284° West 105 121 5,900 60 Level Washington Center
02:23PM 37.8703 -79.2169 285° West 105 121 6,100  Climbing Washington Center
02:24PM 37.8797 -79.2514 289° West 105 121 6,000  Descending Washington Center
02:25PM 37.8869 -79.2861 285° West 105 121 6,200 60 Climbing Washington Center
02:26PM 37.8922 -79.3153 283° West 105 121 6,200 -120 Level Washington Center
02:27PM 37.8997 -79.3444 288° West 100 115 6,000  Descending Washington Center
02:28PM 37.9072 -79.3764 287° West 95 109 6,200  Climbing Washington Center
02:29PM 37.9144 -79.4083 286° West 95 109 6,100 -60 Descending Washington Center
02:30PM 37.9217 -79.4431 285° West 95 109 6,100 60 Level Washington Center
02:31PM 37.9269 -79.4697 284° West 95 109 6,300 240 Climbing Washington Center
02:32PM 37.9325 -79.4911 288° West 83 96 6,600 240 Climbing Washington Center
02:33PM 37.9381 -79.5150 286° West 78 90 6,800 180 Climbing Washington Center
02:34PM 37.9436 -79.5364 288° West 68 78 7,000 120 Climbing Washington Center
02:35PM 37.9469 -79.5603 280° West 68 78 7,100  Climbing Washington Center
02:36PM 37.9544 -79.5894 288° West 73 84 7,100  Level Washington Center
02:37PM 37.9597 -79.6214 282° West 84 97 7,100  Level Washington Center
02:38PM 37.9669 -79.6533 286° West 90 104 7,100 -60 Level Washington Center
02:39PM 37.9742 -79.6881 285° West 95 109 7,000  Descending Washington Center
02:40PM 37.9814 -79.7175 287° West 95 109 7,100  Climbing Washington Center
02:41PM 37.9906 -79.7497 290° West 95 109 7,100  Level Washington Center
02:42PM 37.9978 -79.7842 285° West 95 109 7,100  Level Washington Center
02:43PM 38.0031 -79.8161 282° West 95 109 7,100  Level Washington Center
02:44PM 38.0103 -79.8483 286° West 95 109 7,100  Level Washington Center
02:45PM 38.0172 -79.8828 284° West 95 109 7,100  Level Washington Center
02:46PM 38.0244 -79.9150 286° West 95 109 7,100 -60 Level Washington Center
02:47PM 38.0317 -79.9469 286° West 100 115 7,000 -60 Descending Washington Center
02:48PM 38.0369 -79.9736 284° West 100 115 7,000  Level Washington Center
02:49PM 38.0458 -80.0111 287° West 100 115 7,100  Climbing Washington Center
02:50PM 38.0531 -80.0458 285° West 100 115 7,000 -60 Descending Washington Center
02:51PM 38.0603 -80.0725 289° West 100 115 7,000  Level Washington Center
02:52PM 38.0656 -80.1019 283° West 94 108 7,100  Climbing Washington Center
02:53PM 38.0706 -80.1339 281° West 89 102 7,100 -60 Level Washington Center
02:54PM 38.0778 -80.1661 286° West 89 102 7,000  Descending Washington Center
02:55PM 38.0850 -80.1956 287° West 89 102 7,100  Climbing Washington Center
02:56PM 38.0939 -80.2303 288° West 89 102 7,000 -60 Descending Washington Center
02:57PM 38.1011 -80.2650 285° West 94 108 7,000  Level Washington Center
02:58PM 38.1081 -80.2972 285° West 99 114 7,100  Climbing Washington Center
02:59PM 38.1131 -80.3264 282° West 99 114 7,100  Level Washington Center
03:00PM 38.1181 -80.3586 281° West 99 114 7,100 -60 Level Washington Center
03:01PM 38.1253 -80.3906 286° West 99 114 7,000  Descending Washington Center
03:02PM 38.1306 -80.4175 284° West 99 114 7,100 60 Climbing Washington Center
03:03PM 38.1375 -80.4494 285° West 94 108 7,200  Climbing Washington Center
03:05PM 38.1500 -80.5022 287° West 92 106 7,200 60 Level Indianapolis Center
03:06PM 38.1547 -80.5283 283° West 81 93 7,500 360 Climbing Indianapolis Center
03:07PM 38.1603 -80.5528 286° West 66 76 8,000 240 Climbing Indianapolis Center
03:08PM 38.1656 -80.5778 285° West 68 78 8,100  Climbing Indianapolis Center
03:09PM 38.1858 -80.6014 318° Northwest 93 107 8,000  Descending Indianapolis Center
03:10PM 38.1908 -80.6317 282° West 89 102 8,100  Climbing Indianapolis Center
03:11PM 38.1964 -80.6631 283° West 89 102 8,100 -60 Level Indianapolis Center
03:12PM 38.2028 -80.6989 283° West 98 113 8,000 -60 Descending Indianapolis Center
03:13PM 38.2100 -80.7317 286° West 99 114 8,000 -300 Level Indianapolis Center
03:14PM 38.2203 -80.7758 287° West 107 123 7,500 -540 Descending Indianapolis Center
03:15PM 38.2283 -80.8156 284° West 114 131 6,900 -540 Descending Indianapolis Center
03:16PM 38.2356 -80.8503 285° West 107 123 6,400 -600 Descending Indianapolis Center
03:17PM 38.2431 -80.8853 285° West 105 121 5,700 -660 Descending Indianapolis Center
03:18PM 38.2547 -80.9197 293° West 105 121 5,100 -360 Descending Indianapolis Center
03:19PM 38.2658 -80.9544 292° West 105 121 5,000 -60 Descending Indianapolis Center
03:20PM 38.2769 -80.9892 292° West 105 121 5,000  Level Indianapolis Center
03:21PM 38.2906 -81.0283 294° West 105 121 5,000 -180 Level Indianapolis Center
03:22PM 38.3017 -81.0608 294° West 103 119 4,700 -540 Descending Indianapolis Center
03:23PM 38.3158 -81.1008 294° West 110 127 4,000 -360 Descending Indianapolis Center
03:24PM 38.3286 -81.1383 293° West 116 133 4,000  Level Indianapolis Center
03:25PM 38.3394 -81.1711 293° West 111 128 4,000  Level Indianapolis Center
03:26PM 38.3503 -81.2039 293° West 105 121 4,000  Level Indianapolis Center
03:27PM 38.3650 -81.2444 295° West 105 121 4,000  Level Indianapolis Center
03:28PM 38.3775 -81.2789 295° West 105 121 4,000  Level Indianapolis Center
03:29PM 38.3897 -81.3128 295° West 105 121 4,000  Level Indianapolis Center
03:30PM 38.4022 -81.3450 296° West 105 121 4,000  Level Indianapolis Center
03:32PM 38.4225 -81.3700 316° Northwest 108 124 4,000  Level Indianapolis Center
03:33PM 38.4464 -81.3883 329° Northwest 103 119 4,000 -360 Level Indianapolis Center
03:34PM 38.4722 -81.4128 323° Northwest 107 123 3,300 -720 Descending Indianapolis Center
03:35PM 38.4631 -81.4622 257° West 119 137 2,600 -360 Descending Indianapolis Center
03:36PM 38.4442 -81.4936 232° Southwest 125 144 2,600 -120 Level Indianapolis Center
03:37PM 38.4253 -81.5219 230° Southwest 113 130 2,400 -480 Descending Indianapolis Center
03:38PM 38.4047 -81.5533 230° Southwest 111 128 1,700 -720 Descending Indianapolis Center
03:40PM 38.3667 -81.5833 231° Southwest  Level FlightAware Approximate